Aviation Digital Data Service (ADDS)

Output produced by METARs form (1145 UTC 27 May 2017)
found at http://www.aviationweather.gov/adds/metars/
 
NSFA 271100Z 11003KT 9999 FEW024 25/24 Q1014 RMK DEW
NSFA 271000Z 11003KT 9999 FEW024 25/24 Q1014 RMK DEW
NSFA 270900Z 10003KT 9999 FEW023 SCT300 26/22 Q1014 RMK DEW
NSFA 270800Z 10005KT 9999 FEW022 SCT290 26/23 Q1013
NSFA 270700Z 10004KT 9999 FEW022 SCT290 26/24 Q1013 RMK DEW
NSFA 270600Z 10004KT 9999 FEW022 BKN280 27/25 Q1012
NSFA 270500Z 09004KT 9999 SCT024 29/25 Q1010
NSFA 270400Z 10006KT 9999 SCT024 32/25 Q1011
NSFA 270300Z 09008KT 9999 SCT023 32/25 Q1011
NSFA 270100Z 06010KT 9999 FEW022 SCT150 32/25 Q1012
NSFA 270000Z 06011KT 9999 SCT022 32/25 Q1013
NSFA 262300Z 06011KT 9999 SCT024 32/25 Q1013
NSFA 262200Z 07005KT 9999 SCT022 32/25 Q1014
NSFA 262100Z 08003KT 9999 SCT022 31/25 Q1014
NSFA 262000Z 00000KT 9999 SCT022 30/25 Q1014
NSFA 261900Z 00000KT 9999 FEW020 28/25 Q1013
NSFA 261800Z 11003KT 9999 FEW024 BKN140 26/25 Q1013
NSFA 261600Z 00000KT 99999 FE0W22 SCT130 25/24 Q1012
NSFA 261500Z 00000KT 9999 FEW024 26/25 Q1012
NSFA 261400Z 18003KT 9999 SCT024 26/25 Q1012 RMK DEW
NSFA 261200Z 11003KT 9999 FEW022 SCT140 26/25 Q1013 RMK DEW